Time;durP1;ratioP1;P1;durP2;ratioP2;P2;SDS_P1;SDS_P2;PMS_P1;PMS_P2;Temp;Humidity;BMP_temperature;BMP_pressure;BME280_temperature;BME280_humidity;BME280_pressure;Samples;Min_cycle;Max_cycle;Signal;HPM_P1;HPM_P2
2023/05/31 07:06:03;;;;;;;;;;;;;;;22.83;46.16;100009.52;108906;1277;22547;-54
2023/05/31 07:08:40;;;;;;;;;;;;;;;22.95;46.19;100008.59;108571;1279;22531;-56
2023/05/31 07:11:34;;;;;;;;;;;;;;;23.07;46.76;100005.89;109307;1272;22551;-55
2023/05/31 07:14:04;;;;;;;;;;;;;;;23.21;46.00;100001.55;109456;1264;22490;-55
2023/05/31 07:16:33;;;;;;;;;;;;;;;23.32;43.46;100002.20;109387;1274;23008;-54
2023/05/31 07:19:31;;;;;;;;;;;;;;;23.33;43.36;100002.13;108436;1274;23047;-45
2023/05/31 07:21:59;;;;;;;;;;;;;;;23.35;43.35;100003.23;109284;1267;22893;-46
2023/05/31 07:24:26;;;;;;;;;;;;;;;23.40;42.30;100006.38;109270;1273;23134;-55
2023/05/31 07:26:53;;;;;;;;;;;;;;;23.47;42.38;100001.66;109304;1276;23863;-50
2023/05/31 07:29:21;;;;;;;;;;;;;;;23.56;42.32;100003.10;109099;1280;22539;-52
2023/05/31 07:31:48;;;;;;;;;;;;;;;23.64;40.60;99994.83;109048;1275;22745;-52
2023/05/31 07:34:16;;;;;;;;;;;;;;;23.72;39.33;99998.30;108989;1273;22797;-44
2023/05/31 07:36:48;;;;;;;;;;;;;;;23.78;39.00;99994.92;108854;1277;23356;-53
2023/05/31 07:39:15;;;;;;;;;;;;;;;23.79;39.40;99996.41;109196;1279;22453;-53
2023/05/31 07:41:43;;;;;;;;;;;;;;;23.82;39.23;100000.37;109319;1277;23041;-44
2023/05/31 07:44:11;;;;;;;;;;;;;;;23.86;39.62;100003.88;109240;1279;23320;-44
2023/05/31 07:46:39;;;;;;;;;;;;;;;23.99;39.35;99998.08;109370;1275;23027;-45
2023/05/31 07:49:08;;;;;;;;;;;;;;;24.14;39.02;99997.16;109176;1279;22466;-46
2023/05/31 07:51:35;;;;;;;;;;;;;;;24.22;37.77;99997.22;109205;1276;22925;-45
2023/05/31 07:54:03;;;;;;;;;;;;;;;24.19;36.98;100007.05;109303;1279;22454;-45
2023/05/31 07:56:30;;;;;;;;;;;;;;;24.22;35.33;100005.61;109415;1275;22557;-53
2023/05/31 07:58:58;;;;;;;;;;;;;;;24.36;34.60;100009.02;109433;1274;23132;-45
2023/05/31 08:01:26;;;;;;;;;;;;;;;24.50;35.67;100004.61;109446;1279;22454;-53
2023/05/31 08:03:54;;;;;;;;;;;;;;;24.67;36.34;100005.85;109423;1280;22886;-46
2023/05/31 08:06:22;;;;;;;;;;;;;;;24.77;36.04;100004.20;109528;1279;22447;-46
2023/05/31 08:08:50;;;;;;;;;;;;;;;24.84;36.14;100002.31;109590;1279;22436;-46
2023/05/31 08:11:17;;;;;;;;;;;;;;;24.91;36.24;100005.58;109729;1279;22446;-46
2023/05/31 08:13:45;;;;;;;;;;;;;;;24.98;36.08;100003.56;109758;1279;23502;-46
2023/05/31 08:16:12;;;;;;;;;;;;;;;24.92;35.51;100001.78;109726;1279;22465;-54
2023/05/31 08:18:40;;;;;;;;;;;;;;;24.73;34.62;100003.34;109816;1279;22465;-45
2023/05/31 08:21:07;;;;;;;;;;;;;;;24.60;34.73;99999.88;109769;1279;22896;-44
2023/05/31 08:23:35;;;;;;;;;;;;;;;24.64;34.44;100004.29;109745;1279;22446;-53
2023/05/31 08:26:02;;;;;;;;;;;;;;;24.76;34.14;100006.03;109791;1280;22456;-45
2023/05/31 08:28:30;;;;;;;;;;;;;;;24.87;33.98;100003.52;109685;1280;22417;-53
2023/05/31 08:30:57;;;;;;;;;;;;;;;24.96;34.24;100004.57;109845;1280;22405;-45
2023/05/31 08:33:31;;;;;;;;;;;;;;;25.06;33.75;99999.29;109806;1280;22617;-53
2023/05/31 08:35:59;;;;;;;;;;;;;;;25.09;32.00;100003.75;109797;1280;22422;-45
2023/05/31 08:38:27;;;;;;;;;;;;;;;24.94;31.38;100007.00;109745;1273;22972;-45
2023/05/31 08:40:55;;;;;;;;;;;;;;;24.70;31.59;100007.14;109733;1279;22427;-45
2023/05/31 08:43:25;;;;;;;;;;;;;;;24.61;33.23;100005.70;109757;1279;22429;-52
2023/05/31 08:45:52;;;;;;;;;;;;;;;24.75;33.19;100006.06;109738;1279;22431;-45
2023/05/31 08:48:28;;;;;;;;;;;;;;;24.95;32.94;100008.71;109683;1281;22428;-45
2023/05/31 08:50:58;;;;;;;;;;;;;;;25.13;32.36;100000.45;109732;1274;22449;-45
2023/05/31 08:53:26;;;;;;;;;;;;;;;25.14;31.59;100003.60;109794;1279;22450;-45
2023/05/31 08:55:54;;;;;;;;;;;;;;;24.93;31.22;100000.69;109870;1279;22435;-45
2023/05/31 08:58:22;;;;;;;;;;;;;;;24.68;31.66;100002.23;109835;1280;23308;-53
2023/05/31 09:00:49;;;;;;;;;;;;;;;24.64;31.87;100001.20;109802;1273;22465;-53
2023/05/31 09:03:17;;;;;;;;;;;;;;;24.69;32.19;100001.98;109833;1273;22441;-50
2023/05/31 09:05:45;;;;;;;;;;;;;;;24.76;32.12;100004.77;109704;1275;22456;-50
2023/05/31 09:08:13;;;;;;;;;;;;;;;24.89;32.48;100003.72;109758;1280;23180;-50
2023/05/31 09:10:41;;;;;;;;;;;;;;;25.11;33.08;100006.13;109845;1279;22527;-50
2023/05/31 09:13:08;;;;;;;;;;;;;;;25.17;31.48;100004.85;109841;1280;22486;-50
2023/05/31 09:15:36;;;;;;;;;;;;;;;25.03;31.56;100004.84;109808;1281;22427;-50
2023/05/31 09:18:14;;;;;;;;;;;;;;;24.93;31.37;100000.11;109729;1281;23615;-50
2023/05/31 09:20:41;;;;;;;;;;;;;;;24.82;31.64;100004.04;109706;1281;23347;-50
2023/05/31 09:23:09;;;;;;;;;;;;;;;24.78;32.36;99998.05;109865;1277;22444;-48
2023/05/31 09:25:46;;;;;;;;;;;;;;;24.81;32.14;99994.67;109777;1281;22497;-48
2023/05/31 09:28:13;;;;;;;;;;;;;;;24.80;31.62;99996.81;109692;1281;22459;-48
2023/05/31 09:30:41;;;;;;;;;;;;;;;24.73;31.07;99993.02;109802;1281;23248;-48
2023/05/31 09:33:08;;;;;;;;;;;;;;;24.59;30.67;99993.04;109761;1281;22434;-49
2023/05/31 09:35:36;;;;;;;;;;;;;;;24.44;31.25;99992.69;109802;1281;23182;-53
2023/05/31 09:38:04;;;;;;;;;;;;;;;24.41;31.31;99995.20;109795;1280;23191;-48
2023/05/31 09:40:32;;;;;;;;;;;;;;;24.53;31.20;99984.49;109861;1281;23821;-49
2023/05/31 09:43:00;;;;;;;;;;;;;;;24.72;31.35;99989.33;109794;1281;23236;-48
2023/05/31 09:45:30;;;;;;;;;;;;;;;24.79;30.32;99988.86;109694;1281;22436;-49
2023/05/31 09:47:59;;;;;;;;;;;;;;;24.75;30.39;99987.16;109797;1280;22436;-48
2023/05/31 09:50:26;;;;;;;;;;;;;;;24.68;30.62;99991.37;109757;1281;23040;-48
2023/05/31 09:52:54;;;;;;;;;;;;;;;24.63;30.87;99988.63;109811;1281;22446;-48
2023/05/31 09:55:22;;;;;;;;;;;;;;;24.69;30.78;99983.11;109911;1280;22440;-48
2023/05/31 09:57:51;;;;;;;;;;;;;;;24.75;30.45;99988.59;109951;1280;23601;-50
2023/05/31 10:00:20;;;;;;;;;;;;;;;24.75;29.94;99991.83;107592;1281;23180;-49
2023/05/31 10:02:48;;;;;;;;;;;;;;;24.68;30.17;99990.87;109430;1280;23389;-50
2023/05/31 10:05:16;;;;;;;;;;;;;;;24.62;30.22;99987.84;108855;1277;22481;-49
2023/05/31 10:07:47;;;;;;;;;;;;;;;24.66;30.51;99982.91;109386;1282;22973;-50
2023/05/31 10:10:19;;;;;;;;;;;;;;;24.82;30.31;99987.27;109076;1282;22645;-50
2023/05/31 10:12:53;;;;;;;;;;;;;;;25.01;29.70;99974.61;106720;1281;23366;-48
2023/05/31 10:15:24;;;;;;;;;;;;;;;25.19;29.85;99976.16;109837;1281;22425;-50
2023/05/31 10:17:57;;;;;;;;;;;;;;;25.33;30.21;99978.83;109885;1281;23216;-49
2023/05/31 10:20:25;;;;;;;;;;;;;;;25.30;29.76;99972.57;109959;1281;22435;-49
2023/05/31 10:22:52;;;;;;;;;;;;;;;25.24;30.00;99970.99;109863;1281;23251;-50
2023/05/31 10:25:24;;;;;;;;;;;;;;;25.19;30.05;99974.38;108017;1279;22515;-49
2023/05/31 10:27:53;;;;;;;;;;;;;;;25.14;29.22;99971.85;107512;1279;22506;-49
2023/05/31 10:30:25;;;;;;;;;;;;;;;25.13;29.05;99970.86;108817;1279;22672;-49
2023/05/31 10:33:00;;;;;;;;;;;;;;;25.11;29.25;99971.00;107355;1279;22498;-50
2023/05/31 10:35:28;;;;;;;;;;;;;;;25.29;28.99;99970.69;106951;1279;25644;-50
2023/05/31 10:37:55;;;;;;;;;;;;;;;25.61;29.08;99963.34;106966;1279;24253;-50
2023/05/31 10:40:43;;;;;;;;;;;;;;;26.03;29.47;99965.14;107227;1279;22540;-50
2023/05/31 10:43:31;;;;;;;;;;;;;;;26.26;28.06;99965.50;106880;1279;23849;-49
2023/05/31 10:46:00;;;;;;;;;;;;;;;26.14;28.16;99970.52;106519;1286;22877;-50
2023/05/31 10:48:38;;;;;;;;;;;;;;;26.15;28.27;99972.03;106386;1286;24210;-48
2023/05/31 10:51:06;;;;;;;;;;;;;;;26.27;28.43;99968.11;106656;1286;22520;-49
2023/05/31 10:53:35;;;;;;;;;;;;;;;26.54;28.67;99967.11;106755;1286;22515;-49
2023/05/31 10:56:13;;;;;;;;;;;;;;;26.80;27.98;99960.27;106626;1286;22559;-49
2023/05/31 10:58:42;;;;;;;;;;;;;;;27.05;27.98;99960.38;106490;1286;24281;-49
2023/05/31 11:01:10;;;;;;;;;;;;;;;27.23;27.52;99952.66;106595;1286;22681;-49
2023/05/31 11:03:49;;;;;;;;;;;;;;;27.22;27.36;99958.95;106342;1286;22634;-50
2023/05/31 11:06:22;;;;;;;;;;;;;;;26.91;27.23;99958.40;106230;1286;22903;-49
2023/05/31 11:08:56;;;;;;;;;;;;;;;26.56;27.45;99961.80;106523;1286;25474;-49
2023/05/31 11:11:25;;;;;;;;;;;;;;;26.30;28.46;99964.02;106656;1286;23886;-54
2023/05/31 11:13:55;;;;;;;;;;;;;;;26.12;28.93;99964.91;106398;1286;22544;-50
2023/05/31 11:16:23;;;;;;;;;;;;;;;25.99;29.34;99962.55;106270;1286;25279;-49
2023/05/31 11:19:01;;;;;;;;;;;;;;;25.91;29.69;99960.66;106726;1274;24322;-49
2023/05/31 11:21:48;;;;;;;;;;;;;;;25.82;30.15;99963.91;106274;1286;132413;-50
2023/05/31 11:24:34;;;;;;;;;;;;;;;25.76;30.59;99960.98;107193;1279;22500;-51
2023/05/31 11:27:02;;;;;;;;;;;;;;;25.60;31.11;99958.58;106700;1279;22531;-49
2023/05/31 11:29:48;;;;;;;;;;;;;;;25.45;31.20;99961.02;107034;1279;22514;-48
2023/05/31 11:32:16;;;;;;;;;;;;;;;25.34;30.99;99963.55;106961;1279;24354;-49
2023/05/31 11:34:53;;;;;;;;;;;;;;;25.30;30.59;99964.23;107005;1279;22501;-50
2023/05/31 11:37:28;;;;;;;;;;;;;;;25.36;31.68;99963.40;106988;1279;25404;-50
2023/05/31 11:39:56;;;;;;;;;;;;;;;25.57;31.23;99957.02;106714;1279;25448;-49
2023/05/31 11:42:23;;;;;;;;;;;;;;;25.74;30.63;99956.11;106711;1279;25499;-48
2023/05/31 11:44:51;;;;;;;;;;;;;;;25.83;30.27;99962.27;106909;1279;22507;-49
2023/05/31 11:47:19;;;;;;;;;;;;;;;25.89;30.33;99961.11;107161;1279;22507;-50
2023/05/31 11:49:47;;;;;;;;;;;;;;;25.96;30.48;99961.73;107645;1279;25416;-49
2023/05/31 11:52:15;;;;;;;;;;;;;;;25.98;30.30;99960.27;106993;1279;22520;-49
2023/05/31 11:54:44;;;;;;;;;;;;;;;25.94;30.75;99966.64;106952;1279;22510;-49
2023/05/31 11:57:12;;;;;;;;;;;;;;;25.87;29.92;99968.43;107131;1279;22514;-50
2023/05/31 11:59:41;;;;;;;;;;;;;;;25.77;30.15;99967.29;107270;1281;22514;-49
2023/05/31 12:02:09;;;;;;;;;;;;;;;25.73;30.83;99967.34;106839;1281;22541;-50
2023/05/31 12:04:37;;;;;;;;;;;;;;;25.76;31.37;99968.27;107263;1281;22491;-48
2023/05/31 12:07:12;;;;;;;;;;;;;;;25.74;30.56;99972.33;106578;1281;22529;-48
2023/05/31 12:09:40;;;;;;;;;;;;;;;25.65;30.46;99969.54;107394;1281;22527;-48
2023/05/31 12:12:07;;;;;;;;;;;;;;;25.56;30.48;99971.73;108319;1281;22613;-48
2023/05/31 12:14:35;;;;;;;;;;;;;;;25.48;30.01;99967.98;106563;1281;23863;-51
2023/05/31 12:17:03;;;;;;;;;;;;;;;25.44;30.60;99966.27;106913;1281;22505;-49
2023/05/31 12:19:31;;;;;;;;;;;;;;;25.46;31.45;99961.48;107093;1281;25235;-50
2023/05/31 12:21:59;;;;;;;;;;;;;;;25.60;31.68;99960.58;106967;1281;22556;-51
2023/05/31 12:24:27;;;;;;;;;;;;;;;25.78;31.44;99962.63;106694;1281;22774;-49
2023/05/31 12:26:56;;;;;;;;;;;;;;;25.92;30.35;99963.26;106897;1281;22530;-50
2023/05/31 12:29:28;;;;;;;;;;;;;;;25.92;30.69;99964.49;106678;1281;22741;-50
2023/05/31 12:32:05;;;;;;;;;;;;;;;25.83;30.38;99964.40;109084;1281;22604;-51
2023/05/31 12:34:34;;;;;;;;;;;;;;;25.71;30.93;99964.48;108392;1281;23265;-51
2023/05/31 12:37:05;;;;;;;;;;;;;;;25.69;30.96;99961.74;108912;1281;22579;-48
2023/05/31 12:39:33;;;;;;;;;;;;;;;25.70;30.74;99966.14;107144;1281;22567;-49
2023/05/31 12:42:01;;;;;;;;;;;;;;;25.67;30.27;99968.14;106809;1281;22855;-49
2023/05/31 12:44:28;;;;;;;;;;;;;;;25.72;30.14;99964.21;107210;1281;24302;-50
2023/05/31 12:47:00;;;;;;;;;;;;;;;25.83;30.71;99958.72;106838;1281;23857;-49
2023/05/31 12:49:28;;;;;;;;;;;;;;;25.88;30.17;99960.32;106902;1281;24215;-48
2023/05/31 12:51:59;;;;;;;;;;;;;;;25.98;31.15;99954.42;106844;1280;25226;-52
2023/05/31 12:54:26;;;;;;;;;;;;;;;26.09;31.19;99958.17;106429;1281;23564;-49
2023/05/31 12:56:55;;;;;;;;;;;;;;;26.06;31.32;99958.35;106828;1281;23571;-49
2023/05/31 12:59:22;;;;;;;;;;;;;;;25.91;31.49;99962.41;106499;1282;22512;-49
2023/05/31 13:01:50;;;;;;;;;;;;;;;25.71;31.55;99962.33;106700;1281;25259;-49
2023/05/31 13:04:17;;;;;;;;;;;;;;;25.66;31.35;99956.39;107039;1280;22506;-49
2023/05/31 13:06:45;;;;;;;;;;;;;;;25.71;31.59;99956.61;106935;1280;26470;-51
2023/05/31 13:09:12;;;;;;;;;;;;;;;25.70;31.66;99956.34;106975;1280;23166;-50
2023/05/31 13:11:40;;;;;;;;;;;;;;;25.59;31.82;99951.36;106816;1280;24235;-50
2023/05/31 13:14:08;;;;;;;;;;;;;;;25.44;31.97;99950.77;106930;1280;25145;-49
2023/05/31 13:16:36;;;;;;;;;;;;;;;25.31;32.55;99952.91;106975;1280;22503;-50
2023/05/31 13:19:07;;;;;;;;;;;;;;;25.20;32.29;99955.92;106730;1280;22524;-51
2023/05/31 13:21:37;;;;;;;;;;;;;;;25.11;32.37;99954.00;107307;1280;24751;-50
2023/05/31 13:24:06;;;;;;;;;;;;;;;25.11;32.30;99950.42;106724;1280;22485;-50
2023/05/31 13:26:33;;;;;;;;;;;;;;;25.17;32.66;99953.98;107116;1280;22536;-49
2023/05/31 13:29:01;;;;;;;;;;;;;;;25.23;32.87;99955.00;107367;1281;22515;-50
2023/05/31 13:31:28;;;;;;;;;;;;;;;25.28;32.71;99957.20;106995;1281;22517;-51
2023/05/31 13:33:56;;;;;;;;;;;;;;;25.37;32.21;99957.85;107099;1281;22540;-50
2023/05/31 13:36:24;;;;;;;;;;;;;;;25.52;31.45;99955.23;106758;1281;25390;-47
2023/05/31 13:38:52;;;;;;;;;;;;;;;25.69;31.52;99952.80;106840;1281;22566;-50
2023/05/31 13:41:21;;;;;;;;;;;;;;;25.92;31.26;99950.73;106636;1281;24053;-50
2023/05/31 13:43:49;;;;;;;;;;;;;;;26.19;30.43;99947.98;106714;1281;24852;-49
2023/05/31 13:46:18;;;;;;;;;;;;;;;26.38;29.84;99946.98;107292;1281;22512;-49
2023/05/31 13:48:46;;;;;;;;;;;;;;;26.44;29.55;99949.40;106625;1281;25266;-50
2023/05/31 13:51:15;;;;;;;;;;;;;;;26.35;29.35;99950.23;106742;1281;25188;-49
2023/05/31 13:53:43;;;;;;;;;;;;;;;26.25;29.15;99949.32;106361;1281;22517;-50
2023/05/31 13:56:10;;;;;;;;;;;;;;;26.18;30.30;99946.61;106790;1281;22508;-48
2023/05/31 13:58:38;;;;;;;;;;;;;;;26.16;30.40;99948.00;106465;1281;22530;-50
2023/05/31 14:01:09;;;;;;;;;;;;;;;26.18;30.27;99946.61;106652;1282;25380;-49
2023/05/31 14:03:37;;;;;;;;;;;;;;;26.10;30.31;99950.02;106818;1281;24464;-49
2023/05/31 14:06:06;;;;;;;;;;;;;;;25.93;30.52;99946.90;106815;1281;22503;-49
2023/05/31 14:08:34;;;;;;;;;;;;;;;25.83;30.73;99946.87;106917;1281;22528;-49
2023/05/31 14:11:01;;;;;;;;;;;;;;;25.81;31.37;99944.56;106630;1281;22531;-50
2023/05/31 14:13:29;;;;;;;;;;;;;;;25.77;32.12;99949.96;106688;1281;24176;-48
2023/05/31 14:15:58;;;;;;;;;;;;;;;25.65;32.39;99944.13;106911;1281;25197;-49
2023/05/31 14:18:26;;;;;;;;;;;;;;;25.50;32.85;99946.63;106418;1281;22520;-50
2023/05/31 14:20:57;;;;;;;;;;;;;;;25.40;33.31;99949.60;107067;1281;25261;-50
2023/05/31 14:23:30;;;;;;;;;;;;;;;25.41;33.22;99942.19;107356;1281;25387;-48
2023/05/31 14:25:58;;;;;;;;;;;;;;;25.43;32.99;99948.48;107917;1281;22480;-49
2023/05/31 14:28:25;;;;;;;;;;;;;;;25.35;32.56;99952.27;109923;1281;22447;-49
2023/05/31 14:30:53;;;;;;;;;;;;;;;25.17;32.93;99949.69;107030;1281;24008;-50
2023/05/31 14:33:23;;;;;;;;;;;;;;;25.00;32.84;99950.11;107162;1281;22538;-49
2023/05/31 14:35:50;;;;;;;;;;;;;;;24.85;33.22;99957.65;106517;1281;25219;-52
2023/05/31 14:38:19;;;;;;;;;;;;;;;24.76;33.08;99955.38;106577;1281;22516;-51
2023/05/31 14:41:02;;;;;;;;;;;;;;;24.67;33.33;99955.44;106680;1281;24291;-49
2023/05/31 14:43:29;;;;;;;;;;;;;;;24.66;33.63;99954.63;106503;1281;22798;-49
2023/05/31 14:45:57;;;;;;;;;;;;;;;24.74;33.87;99949.96;109181;1281;23182;-49
2023/05/31 14:48:25;;;;;;;;;;;;;;;24.88;33.71;99950.49;109901;1281;22434;-49
2023/05/31 14:50:52;;;;;;;;;;;;;;;25.05;33.22;99949.07;107855;1281;23123;-50
2023/05/31 14:53:20;;;;;;;;;;;;;;;25.16;32.77;99948.35;109921;1281;22437;-48
2023/05/31 14:55:47;;;;;;;;;;;;;;;25.19;33.34;99947.05;109927;1281;22427;-50
2023/05/31 14:58:14;;;;;;;;;;;;;;;25.27;33.08;99950.67;109929;1281;22432;-49
2023/05/31 15:00:42;;;;;;;;;;;;;;;25.27;32.74;99947.65;109891;1278;22429;-48
2023/05/31 15:03:09;;;;;;;;;;;;;;;25.18;33.25;99948.39;109927;1280;22669;-48
2023/05/31 15:05:37;;;;;;;;;;;;;;;25.05;33.55;99952.09;109930;1280;23115;-49
2023/05/31 15:08:05;;;;;;;;;;;;;;;24.85;33.62;99951.56;108681;1280;22505;-50
2023/05/31 15:10:32;;;;;;;;;;;;;;;24.64;34.03;99954.89;107227;1280;22507;-50
2023/05/31 15:13:00;;;;;;;;;;;;;;;24.44;33.93;99950.08;108054;1280;22472;-48
2023/05/31 15:15:27;;;;;;;;;;;;;;;24.27;34.38;99956.33;107540;1280;22523;-49
2023/05/31 15:17:54;;;;;;;;;;;;;;;24.13;34.70;99954.48;106851;1281;24218;-49
2023/05/31 15:20:22;;;;;;;;;;;;;;;24.03;35.25;99959.18;106661;1281;22512;-50
2023/05/31 15:22:50;;;;;;;;;;;;;;;23.99;35.33;99957.15;106636;1281;22518;-49
2023/05/31 15:25:19;;;;;;;;;;;;;;;23.92;35.26;99954.70;106846;1280;25264;-49
2023/05/31 15:27:47;;;;;;;;;;;;;;;23.82;35.27;99951.23;106584;1282;22613;-50
2023/05/31 15:30:14;;;;;;;;;;;;;;;23.73;35.36;99954.98;106517;1280;22652;-49
2023/05/31 15:32:42;;;;;;;;;;;;;;;23.65;35.51;99958.47;106772;1281;25211;-48
2023/05/31 15:35:09;;;;;;;;;;;;;;;23.58;35.65;99960.45;106591;1282;22589;-49
2023/05/31 15:37:37;;;;;;;;;;;;;;;23.52;35.90;99958.16;106915;1281;25463;-48
2023/05/31 15:40:05;;;;;;;;;;;;;;;23.49;36.06;99958.32;106634;1281;23285;-49
2023/05/31 15:42:32;;;;;;;;;;;;;;;23.51;36.18;99962.48;106672;1281;26493;-50
2023/05/31 15:44:59;;;;;;;;;;;;;;;23.58;36.23;99962.25;106690;1281;25505;-49
2023/05/31 15:47:27;;;;;;;;;;;;;;;23.67;36.70;99965.96;106819;1281;22517;-50
2023/05/31 15:50:00;;;;;;;;;;;;;;;23.77;36.71;99968.27;107069;1281;25213;-49
2023/05/31 15:52:27;;;;;;;;;;;;;;;23.84;36.53;99968.89;106774;1281;23286;-50
2023/05/31 15:54:55;;;;;;;;;;;;;;;23.90;36.59;99971.58;106681;1281;22531;-49
2023/05/31 15:57:22;;;;;;;;;;;;;;;23.91;36.19;99973.82;106596;1281;26471;-49
2023/05/31 15:59:50;;;;;;;;;;;;;;;23.92;36.12;99972.17;106868;1281;22533;-49
2023/05/31 16:02:18;;;;;;;;;;;;;;;23.92;35.72;99973.79;106713;1281;24221;-49
2023/05/31 16:04:46;;;;;;;;;;;;;;;23.91;35.94;99975.25;106787;1281;22602;-49
2023/05/31 16:07:13;;;;;;;;;;;;;;;23.90;35.81;99979.25;106905;1281;22529;-50
2023/05/31 16:09:41;;;;;;;;;;;;;;;23.86;35.20;99981.55;106794;1282;25604;-50
2023/05/31 16:12:09;;;;;;;;;;;;;;;23.81;35.11;99984.04;106856;1281;23856;-50
2023/05/31 16:14:36;;;;;;;;;;;;;;;23.76;35.60;99980.09;106884;1279;22523;-49
2023/05/31 16:17:04;;;;;;;;;;;;;;;23.72;35.30;99988.31;107095;1279;25259;-49
2023/05/31 16:19:32;;;;;;;;;;;;;;;23.68;35.65;99986.95;106808;1279;22539;-49
2023/05/31 16:21:59;;;;;;;;;;;;;;;23.65;35.48;99985.36;106851;1279;24174;-50
2023/05/31 16:24:27;;;;;;;;;;;;;;;23.60;35.72;99985.25;107136;1279;25597;-49
2023/05/31 16:26:54;;;;;;;;;;;;;;;23.58;36.04;99986.98;106949;1279;23575;-48
2023/05/31 16:29:21;;;;;;;;;;;;;;;23.54;36.25;99988.59;106889;1279;22528;-48
2023/05/31 16:31:49;;;;;;;;;;;;;;;23.48;36.56;99992.88;106672;1279;22520;-48
2023/05/31 16:34:17;;;;;;;;;;;;;;;23.39;36.66;99995.35;106800;1279;24210;-48
2023/05/31 16:36:44;;;;;;;;;;;;;;;23.27;36.41;99996.41;106859;1279;22554;-49
2023/05/31 16:39:12;;;;;;;;;;;;;;;23.18;36.36;99995.67;106794;1279;25233;-49
2023/05/31 16:41:39;;;;;;;;;;;;;;;23.09;36.38;99995.46;106989;1279;22516;-48
2023/05/31 16:44:07;;;;;;;;;;;;;;;23.01;36.33;100000.56;106960;1279;23429;-51
2023/05/31 16:46:34;;;;;;;;;;;;;;;22.92;36.42;100002.15;106884;1279;22545;-51
2023/05/31 16:49:02;;;;;;;;;;;;;;;22.82;36.57;100003.34;106869;1279;22535;-50
2023/05/31 16:51:31;;;;;;;;;;;;;;;22.74;36.82;100006.97;106932;1279;22496;-49
2023/05/31 16:53:59;;;;;;;;;;;;;;;22.66;36.86;100010.98;106613;1279;23886;-49
2023/05/31 16:56:26;;;;;;;;;;;;;;;22.57;37.35;100012.39;106888;1279;22507;-50
2023/05/31 16:58:54;;;;;;;;;;;;;;;22.46;37.54;100009.75;106966;1279;26481;-50
2023/05/31 17:01:22;;;;;;;;;;;;;;;22.36;37.74;100015.66;106716;1279;22512;-49
2023/05/31 17:03:50;;;;;;;;;;;;;;;22.24;38.10;100014.47;107219;1279;22516;-49
2023/05/31 17:06:18;;;;;;;;;;;;;;;22.13;38.24;100017.55;106873;1279;22511;-49
2023/05/31 17:08:46;;;;;;;;;;;;;;;22.01;38.40;100016.53;106941;1279;22500;-49
2023/05/31 17:11:13;;;;;;;;;;;;;;;21.91;38.60;100022.56;106727;1279;22520;-48
2023/05/31 17:13:41;;;;;;;;;;;;;;;21.81;38.62;100022.55;107125;1279;22513;-49
2023/05/31 17:16:09;;;;;;;;;;;;;;;21.71;38.67;100028.36;106912;1279;22559;-48
2023/05/31 17:18:37;;;;;;;;;;;;;;;21.62;38.63;100031.84;107061;1279;22515;-49
2023/05/31 17:21:05;;;;;;;;;;;;;;;21.55;38.73;100033.07;106642;1279;22556;-49
2023/05/31 17:23:32;;;;;;;;;;;;;;;21.48;38.42;100035.20;107070;1279;22549;-49
2023/05/31 17:26:00;;;;;;;;;;;;;;;21.41;38.26;100033.94;107257;1279;23848;-49
2023/05/31 17:28:28;;;;;;;;;;;;;;;21.34;38.19;100036.95;106906;1279;24194;-50
2023/05/31 17:30:55;;;;;;;;;;;;;;;21.26;38.19;100041.92;106983;1279;23178;-49
2023/05/31 17:33:22;;;;;;;;;;;;;;;21.16;38.49;100045.55;106966;1279;24209;-48
2023/05/31 17:35:50;;;;;;;;;;;;;;;21.06;38.61;100048.89;106983;1279;23051;-49
2023/05/31 17:38:20;;;;;;;;;;;;;;;20.94;39.12;100052.79;107212;1279;24182;-50
2023/05/31 17:40:47;;;;;;;;;;;;;;;20.83;39.35;100053.35;107034;1279;22789;-49
2023/05/31 17:43:14;;;;;;;;;;;;;;;20.69;39.79;100054.13;107228;1279;22641;-49
2023/05/31 17:45:43;;;;;;;;;;;;;;;20.56;40.34;100054.72;107125;1279;24203;-49
2023/05/31 17:48:10;;;;;;;;;;;;;;;20.45;40.75;100058.41;107299;1279;22501;-49
2023/05/31 17:50:38;;;;;;;;;;;;;;;20.32;41.01;100060.00;107068;1279;23883;-48
2023/05/31 17:53:05;;;;;;;;;;;;;;;20.20;41.19;100059.12;107284;1279;22533;-50
2023/05/31 17:55:33;;;;;;;;;;;;;;;20.08;41.76;100061.41;107240;1279;22510;-48
2023/05/31 17:58:01;;;;;;;;;;;;;;;19.95;41.88;100063.20;106966;1279;22518;-49
2023/05/31 18:00:28;;;;;;;;;;;;;;;19.82;42.25;100065.89;106849;1279;22512;-49
2023/05/31 18:02:56;;;;;;;;;;;;;;;19.71;42.36;100069.53;107058;1280;22512;-48
2023/05/31 18:05:23;;;;;;;;;;;;;;;19.59;42.55;100071.58;107388;1280;22503;-50
2023/05/31 18:07:51;;;;;;;;;;;;;;;19.49;42.74;100075.70;108833;1280;22640;-52
2023/05/31 18:10:18;;;;;;;;;;;;;;;19.40;42.83;100076.59;107187;1280;22512;-50
2023/05/31 18:12:46;;;;;;;;;;;;;;;19.30;42.97;100081.20;107021;1280;22516;-50
2023/05/31 18:15:13;;;;;;;;;;;;;;;19.22;43.06;100080.11;106800;1280;25303;-49
2023/05/31 18:17:41;;;;;;;;;;;;;;;19.14;43.12;100086.77;107429;1280;22564;-49
2023/05/31 18:20:09;;;;;;;;;;;;;;;19.07;43.27;100093.60;107198;1280;22510;-51
2023/05/31 18:22:37;;;;;;;;;;;;;;;18.99;43.45;100096.39;107290;1280;23891;-48
